Anch, Alaska
Current Conditions -  °F | °C
As of 1:58 PM on Saturday 22 Nov 2014 (Local Time) from PAED Reporting Station
Overcast Overcast  
Wind Chill: 24°   Ceiling: 13000
Heat Index: 30°   Visibility: 10mi
Dew Point: 22°   Wind: 6mph
Humidity: 72%   Direction: 50°NE
Pressure: 29.12"   Gusts: NA
Location:  61.2265°N, 149.62°W
Report Text: PAED 222258Z AUTO 05005KT 10SM BKN130 OVC150 M01/M06 A2912 RMK AO2 SLP858 T10121056 $
Loading
Personal Weather Stations






























Interactive Weather Map New forecast layout! Learn more

10-Day Weather Forecast

Advertisements
Track Severe Weather on mobile